AGGM

Munda Airport

Solomon Islands

AGGM 210600Z 00000KT 9999 HZ FEW017 OVC300 29/24 Q1009

Observed Flight Rules
Sep-21 @ 06:00 UTC (4 hours ago)
 
Visual Flight Rules
Wind Visibility Clouds Conditions
Calm 10,000+ meters
  • Few at 1,700' AGL
  • Overcast at 30,000' AGL
  • Haze
Temperatures Readings
Current 29°C / 84°F
Dewpoint 24°C / 75°F
Humidity 74%
Altimeter 29.79" Hg
Pressure 1009 hPa
Elevation 6
Observed Flight Rules
Sep-21 @ 06:00 UTC
(4 hours ago)
 
VFR
Wind Visibility
Calm 10,000+ meters
Clouds Conditions
  • Few at 1,700' AGL
  • Overcast at 30,000' AGL
  • Haze
Temperature Dewpoint
29°C / 84°F 24°C / 75°F
Humidity Altimeter Pressure
74% 29.79" Hg 1009 hPa